Time;durP1;ratioP1;P1;durP2;ratioP2;P2;SDS_P1;SDS_P2;PMS_P1;PMS_P2;Temp;Humidity;BMP_temperature;BMP_pressure;BME280_temperature;BME280_humidity;BME280_pressure;Samples;Min_cycle;Max_cycle;Signal;HPM_P1;HPM_P2
2023/10/17 00:02:10;;;;;;;15.53;10.90;;;6.20;99.90;;;;;;5038023;28;20182;-81
2023/10/17 00:04:38;;;;;;;14.63;9.88;;;6.20;99.90;;;;;;5055726;28;20192;-81
2023/10/17 00:07:04;;;;;;;19.48;10.50;;;6.20;99.90;;;;;;5055685;28;20189;-81
2023/10/17 00:09:32;;;;;;;16.57;11.60;;;6.20;99.90;;;;;;5055535;28;20213;-81
2023/10/17 00:11:58;;;;;;;15.95;10.30;;;6.20;99.90;;;;;;5038092;28;20184;-81
2023/10/17 00:14:44;;;;;;;16.55;10.43;;;6.10;99.90;;;;;;5055714;28;20181;-81
2023/10/17 00:17:14;;;;;;;15.48;9.55;;;6.10;99.90;;;;;;5056005;28;20204;-81
2023/10/17 00:19:41;;;;;;;11.82;9.68;;;6.10;99.90;;;;;;5055015;28;20963;-81
2023/10/17 00:22:09;;;;;;;14.52;8.65;;;6.00;99.90;;;;;;5038701;28;20188;-81
2023/10/17 00:24:35;;;;;;;11.30;8.75;;;6.00;99.90;;;;;;5037784;28;20192;-81
2023/10/17 00:27:02;;;;;;;13.17;9.47;;;6.00;99.90;;;;;;5037974;28;20181;-81
2023/10/17 00:29:28;;;;;;;13.05;9.27;;;6.00;99.90;;;;;;5021662;28;20646;-80
2023/10/17 00:31:53;;;;;;;24.37;10.30;;;6.00;99.90;;;;;;5037903;28;20276;-80
2023/10/17 00:34:24;;;;;;;10.43;8.83;;;6.00;99.90;;;;;;5038096;28;20431;-81
2023/10/17 00:36:50;;;;;;;16.42;9.60;;;6.00;99.90;;;;;;5054597;28;20238;-80
2023/10/17 00:39:32;;;;;;;13.18;8.70;;;6.00;99.90;;;;;;5054330;28;20184;-81
2023/10/17 00:44:44;;;;;;;15.15;8.93;;;5.90;99.90;;;;;;5037654;28;20264;-81
2023/10/17 00:47:18;;;;;;;14.57;8.45;;;6.00;99.90;;;;;;5037246;28;20184;-80
2023/10/17 00:49:45;;;;;;;14.10;10.88;;;6.00;99.90;;;;;;5055502;28;20169;-80
2023/10/17 00:52:28;;;;;;;12.70;8.30;;;6.00;99.90;;;;;;5037803;28;20178;-80
2023/10/17 00:54:55;;;;;;;13.50;8.25;;;6.00;99.90;;;;;;5055033;28;20237;-80
2023/10/17 00:57:22;;;;;;;11.00;8.35;;;6.00;99.90;;;;;;5055371;28;20201;-81
2023/10/17 00:59:52;;;;;;;12.13;9.30;;;6.00;99.90;;;;;;5038094;28;20184;-81
2023/10/17 01:02:44;;;;;;;15.50;8.43;;;6.10;99.90;;;;;;5021633;28;20182;-81
2023/10/17 01:05:11;;;;;;;13.30;9.45;;;6.10;99.90;;;;;;5054432;28;20196;-81
2023/10/17 01:07:39;;;;;;;13.90;8.63;;;6.10;99.90;;;;;;5055679;28;20267;-80
2023/10/17 01:10:16;;;;;;;12.35;8.20;;;6.20;99.90;;;;;;5055583;28;20255;-81
2023/10/17 01:12:53;;;;;;;15.23;9.55;;;6.20;99.90;;;;;;5037104;28;20181;-81
2023/10/17 01:15:20;;;;;;;11.05;8.90;;;6.30;99.90;;;;;;5055194;28;20186;-80
2023/10/17 01:17:46;;;;;;;15.10;9.60;;;6.30;99.90;;;;;;5020715;28;20216;-81
2023/10/17 01:20:19;;;;;;;18.47;9.03;;;6.30;99.90;;;;;;5004409;28;20188;-80
2023/10/17 01:22:45;;;;;;;10.40;8.15;;;6.20;99.90;;;;;;5020035;28;20192;-80
2023/10/17 01:25:26;;;;;;;11.00;8.25;;;6.20;99.90;;;;;;5018065;28;20182;-81
2023/10/17 01:27:59;;;;;;;14.77;8.40;;;6.20;99.90;;;;;;5034981;28;20202;-80
2023/10/17 01:30:34;;;;;;;10.15;7.53;;;6.20;99.90;;;;;;5017440;28;20213;-81
2023/10/17 01:33:00;;;;;;;12.13;7.78;;;6.20;99.90;;;;;;5002883;28;20186;-81
2023/10/17 01:35:26;;;;;;;13.43;7.10;;;6.20;99.90;;;;;;5017211;28;20178;-81
2023/10/17 01:37:52;;;;;;;11.35;7.68;;;6.20;99.90;;;;;;5016842;28;20239;-80
2023/10/17 01:40:27;;;;;;;11.10;7.22;;;6.30;99.90;;;;;;5017602;28;20595;-81
2023/10/17 01:42:56;;;;;;;10.65;6.85;;;6.30;99.90;;;;;;5023926;28;20188;-81
2023/10/17 01:45:25;;;;;;;12.35;7.18;;;6.30;99.90;;;;;;5055039;28;20200;-81
2023/10/17 01:47:51;;;;;;;9.45;6.65;;;6.40;99.90;;;;;;5039609;28;20592;-81
2023/10/17 01:50:18;;;;;;;12.05;7.57;;;6.40;99.90;;;;;;5058859;28;20188;-81
2023/10/17 01:52:45;;;;;;;10.23;7.30;;;6.40;99.90;;;;;;5023685;28;20185;-81
2023/10/17 01:55:14;;;;;;;13.73;7.15;;;6.40;99.90;;;;;;5023798;28;20182;-81
2023/10/17 01:57:44;;;;;;;9.68;7.00;;;6.40;99.90;;;;;;5058119;28;20307;-81
2023/10/17 02:02:55;;;;;;;9.63;7.47;;;6.30;99.90;;;;;;5058494;28;20282;-80
2023/10/17 02:05:22;;;;;;;9.00;6.57;;;6.40;99.90;;;;;;5040486;28;20284;-81
2023/10/17 02:07:48;;;;;;;8.90;6.55;;;6.30;99.90;;;;;;5058084;28;20238;-81
2023/10/17 02:10:18;;;;;;;7.80;6.30;;;6.40;99.90;;;;;;5040790;28;20261;-81
2023/10/17 02:12:46;;;;;;;9.57;6.50;;;6.40;99.90;;;;;;5041541;28;20269;-81
2023/10/17 02:15:16;;;;;;;12.65;7.15;;;6.30;99.90;;;;;;5058282;28;20176;-81
2023/10/17 02:17:42;;;;;;;10.75;6.43;;;6.40;99.90;;;;;;5040472;28;20208;-81
2023/10/17 02:20:17;;;;;;;12.63;6.93;;;6.40;99.90;;;;;;5007097;28;20190;-81
2023/10/17 02:22:46;;;;;;;7.80;6.68;;;6.40;99.90;;;;;;5057678;28;20169;-81
2023/10/17 02:25:15;;;;;;;9.82;6.43;;;6.50;99.90;;;;;;5030620;28;20212;-81
2023/10/17 02:27:43;;;;;;;10.23;6.95;;;6.40;99.90;;;;;;5004233;28;20190;-81
2023/10/17 02:30:11;;;;;;;9.02;7.18;;;6.40;99.90;;;;;;5019851;28;20182;-81
2023/10/17 02:32:43;;;;;;;6.90;5.80;;;6.30;99.90;;;;;;5020726;28;20180;-81
2023/10/17 02:35:15;;;;;;;8.60;6.25;;;6.30;99.90;;;;;;5004832;28;20239;-81
2023/10/17 02:37:43;;;;;;;10.73;7.03;;;6.30;99.90;;;;;;5019159;28;20299;-81
2023/10/17 02:40:19;;;;;;;9.27;6.30;;;6.30;99.90;;;;;;5020604;28;20177;-81
2023/10/17 02:42:46;;;;;;;9.30;6.88;;;6.30;99.90;;;;;;5004808;28;20547;-81
2023/10/17 02:45:12;;;;;;;11.00;7.50;;;6.30;99.90;;;;;;5041951;28;20189;-81
2023/10/17 02:47:39;;;;;;;12.53;6.80;;;6.20;99.90;;;;;;5039830;28;20188;-81
2023/10/17 02:50:20;;;;;;;11.38;6.97;;;6.30;99.90;;;;;;5039730;28;20404;-81
2023/10/17 02:52:51;;;;;;;8.45;6.47;;;6.30;99.90;;;;;;5041320;28;20223;-81
2023/10/17 02:55:23;;;;;;;8.00;6.22;;;6.30;99.90;;;;;;5008457;28;20271;-81
2023/10/17 02:57:50;;;;;;;8.57;5.57;;;6.30;99.90;;;;;;5039991;28;20209;-81
2023/10/17 03:00:22;;;;;;;8.32;5.93;;;6.30;99.90;;;;;;5039424;28;20706;-81
2023/10/17 03:02:56;;;;;;;12.57;7.25;;;6.30;99.90;;;;;;5023450;28;20185;-81
2023/10/17 03:05:22;;;;;;;7.47;6.50;;;6.30;99.90;;;;;;5039254;28;20191;-81
2023/10/17 03:07:51;;;;;;;10.57;5.80;;;6.30;99.90;;;;;;5022663;28;20224;-81
2023/10/17 03:10:26;;;;;;;10.32;6.65;;;6.30;99.90;;;;;;5039099;28;20559;-81
2023/10/17 03:12:55;;;;;;;8.43;6.55;;;6.30;99.90;;;;;;5023633;28;20314;-81
2023/10/17 03:15:23;;;;;;;9.70;5.72;;;6.30;99.90;;;;;;5056770;28;20176;-81
2023/10/17 03:18:00;;;;;;;7.05;5.95;;;6.30;99.90;;;;;;5039075;28;20610;-81
2023/10/17 03:20:36;;;;;;;9.55;6.30;;;6.30;99.90;;;;;;5025925;28;20295;-81
2023/10/17 03:23:08;;;;;;;7.07;6.13;;;6.30;99.90;;;;;;5009567;28;20187;-81
2023/10/17 03:25:37;;;;;;;12.35;6.60;;;6.30;99.90;;;;;;5022918;28;20242;-81
2023/10/17 03:28:08;;;;;;;8.38;6.10;;;6.30;99.90;;;;;;5023089;28;20276;-81
2023/10/17 03:30:34;;;;;;;9.30;6.47;;;6.30;99.90;;;;;;5038663;28;20231;-81
2023/10/17 03:35:26;;;;;;;10.40;6.50;;;6.30;99.90;;;;;;5038547;28;20248;-81
2023/10/17 03:37:55;;;;;;;9.45;5.28;;;6.40;99.90;;;;;;5038279;28;20253;-82
2023/10/17 03:40:29;;;;;;;9.50;5.90;;;6.40;99.90;;;;;;5039044;28;20181;-81
2023/10/17 03:42:55;;;;;;;8.02;5.38;;;6.40;99.90;;;;;;5056742;28;20184;-80
2023/10/17 03:47:57;;;;;;;7.18;5.15;;;6.30;99.90;;;;;;5036860;28;20290;-81
2023/10/17 03:53:29;;;;;;;7.78;4.80;;;6.30;99.90;;;;;;5056335;28;20180;-81
2023/10/17 03:56:01;;;;;;;7.55;4.63;;;6.40;99.90;;;;;;5040566;28;20190;-81
2023/10/17 04:01:09;;;;;;;8.52;5.60;;;6.30;99.90;;;;;;5055869;28;20209;-81
2023/10/17 04:03:35;;;;;;;9.43;5.60;;;6.30;99.90;;;;;;5038276;28;20177;-81
2023/10/17 04:08:48;;;;;;;9.70;5.22;;;6.30;99.90;;;;;;5056305;28;20494;-81
2023/10/17 04:13:54;;;;;;;4.75;4.18;;;6.20;99.90;;;;;;5055895;28;20189;-81
2023/10/17 04:16:26;;;;;;;7.80;5.55;;;6.20;99.90;;;;;;5053861;28;20271;-81
2023/10/17 04:19:00;;;;;;;6.65;4.93;;;6.20;99.90;;;;;;5056116;28;20208;-81
2023/10/17 04:21:35;;;;;;;9.15;4.82;;;6.20;99.90;;;;;;5038938;28;20713;-81
2023/10/17 04:24:07;;;;;;;7.75;6.32;;;6.20;99.90;;;;;;5049728;28;20227;-81
2023/10/17 04:26:42;;;;;;;9.50;4.88;;;6.20;99.90;;;;;;5018392;28;20687;-81
2023/10/17 04:29:11;;;;;;;7.28;5.00;;;6.30;99.90;;;;;;5036144;28;20173;-81
2023/10/17 04:31:38;;;;;;;8.30;5.00;;;6.30;99.90;;;;;;5017817;28;20185;-81
2023/10/17 04:34:08;;;;;;;6.13;4.70;;;6.30;99.90;;;;;;5035982;28;20178;-81
2023/10/17 04:36:38;;;;;;;7.45;4.75;;;6.40;99.90;;;;;;5018977;28;20178;-81
2023/10/17 04:44:25;;;;;;;9.95;4.82;;;6.40;99.90;;;;;;5036070;28;20228;-81
2023/10/17 04:49:35;;;;;;;5.75;4.78;;;6.30;99.90;;;;;;5048410;28;20189;-81
2023/10/17 04:52:47;;;;;;;9.18;6.10;;;6.40;99.90;;;;;;5021656;28;20177;-81
2023/10/17 04:54:54;;;;;;;9.95;5.35;;;6.40;99.90;;;;;;5023506;28;20201;-81
2023/10/17 04:57:21;;;;;;;6.65;4.80;;;6.40;99.90;;;;;;5039006;28;20233;-81
2023/10/17 06:18:32;;;;;;;14.82;5.55;;;6.50;99.90;;;;;;5058000;28;20735;-81
2023/10/17 06:34:38;;;;;;;6.53;5.50;;;6.60;99.90;;;;;;5037512;28;20211;-81
2023/10/17 06:37:07;;;;;;;9.00;5.82;;;6.60;99.90;;;;;;5035981;28;20227;-81
2023/10/17 06:39:37;;;;;;;6.80;5.25;;;6.60;99.90;;;;;;5007073;28;20180;-81
2023/10/17 06:42:27;;;;;;;7.63;5.75;;;6.70;99.90;;;;;;5057100;28;20195;-81
2023/10/17 06:45:08;;;;;;;9.75;5.80;;;6.60;99.90;;;;;;5025803;28;20181;-82
2023/10/17 06:47:47;;;;;;;9.88;5.45;;;6.70;99.90;;;;;;5042112;28;20185;-82
2023/10/17 06:52:40;;;;;;;6.25;4.95;;;6.80;99.90;;;;;;5056933;28;20676;-82
2023/10/17 06:55:07;;;;;;;8.90;4.90;;;6.80;99.90;;;;;;5022980;28;20185;-82
2023/10/17 06:57:35;;;;;;;5.68;5.15;;;6.90;99.90;;;;;;5039622;28;20307;-82
2023/10/17 07:00:42;;;;;;;5.00;3.92;;;7.00;99.90;;;;;;5039520;28;20656;-82
2023/10/17 07:02:56;;;;;;;10.25;5.32;;;7.00;99.90;;;;;;5052494;28;20634;-82
2023/10/17 07:05:23;;;;;;;5.82;4.88;;;7.00;99.90;;;;;;5039782;28;20175;-82
2023/10/17 07:07:52;;;;;;;6.53;4.95;;;7.00;99.90;;;;;;5038749;28;20644;-83
2023/10/17 07:10:38;;;;;;;10.13;4.88;;;7.10;99.90;;;;;;5039170;28;20181;-83
2023/10/17 07:13:41;;;;;;;6.47;4.30;;;7.10;99.90;;;;;;5057246;28;20663;-82
2023/10/17 07:16:16;;;;;;;7.97;5.50;;;7.10;99.90;;;;;;5039482;28;20192;-82
2023/10/17 07:18:45;;;;;;;6.03;4.90;;;7.20;99.90;;;;;;5039262;28;20216;-82
2023/10/17 07:23:42;;;;;;;6.50;4.78;;;7.20;99.90;;;;;;5036613;28;20178;-83
2023/10/17 07:26:17;;;;;;;5.63;4.25;;;7.20;99.90;;;;;;5036771;28;20178;-82
2023/10/17 07:28:49;;;;;;;11.10;5.20;;;7.30;99.90;;;;;;5036545;28;20202;-82
2023/10/17 07:31:20;;;;;;;7.97;4.68;;;7.30;99.90;;;;;;5036749;28;20185;-83
2023/10/17 07:36:31;;;;;;;5.70;4.43;;;7.50;99.90;;;;;;5036700;28;20189;-83
2023/10/17 07:38:57;;;;;;;6.00;4.72;;;7.60;99.90;;;;;;5018635;28;20252;-82
2023/10/17 07:41:37;;;;;;;6.90;5.03;;;7.70;99.90;;;;;;5018670;28;20190;-82
2023/10/17 07:44:19;;;;;;;5.25;3.95;;;7.60;99.90;;;;;;5004375;28;20618;-81
2023/10/17 07:47:08;;;;;;;6.38;3.90;;;7.70;99.90;;;;;;5004515;28;20189;-82
2023/10/17 07:49:35;;;;;;;6.78;4.50;;;7.80;99.90;;;;;;5036592;28;20181;-82
2023/10/17 07:52:22;;;;;;;6.60;4.45;;;7.90;99.90;;;;;;5036610;28;20175;-83
2023/10/17 07:57:36;;;;;;;5.53;4.43;;;8.00;99.90;;;;;;5036340;28;20221;-82
2023/10/17 08:00:23;;;;;;;4.78;3.20;;;8.10;99.90;;;;;;5018207;28;20182;-82
2023/10/17 08:02:48;;;;;;;4.15;3.75;;;8.20;99.90;;;;;;5034657;28;20213;-81
2023/10/17 08:05:17;;;;;;;7.10;4.10;;;8.20;99.90;;;;;;5035294;28;20195;-82
2023/10/17 08:07:48;;;;;;;4.60;3.30;;;8.30;99.90;;;;;;5036319;28;20551;-82
2023/10/17 08:10:20;;;;;;;3.83;3.20;;;8.30;99.90;;;;;;5035016;28;20224;-82
2023/10/17 08:12:45;;;;;;;4.63;3.58;;;8.40;99.90;;;;;;5035102;28;20256;-82
2023/10/17 08:15:22;;;;;;;3.70;3.30;;;8.50;99.90;;;;;;5024956;28;20189;-82
2023/10/17 08:17:49;;;;;;;5.88;3.40;;;8.50;99.90;;;;;;5038619;28;20213;-82
2023/10/17 08:22:55;;;;;;;6.75;3.70;;;8.60;99.90;;;;;;5034738;28;20212;-82
2023/10/17 08:25:30;;;;;;;3.83;3.22;;;8.70;99.90;;;;;;5020727;28;20564;-82
2023/10/17 08:27:56;;;;;;;5.15;2.88;;;8.90;99.90;;;;;;5035661;28;20208;-83
2023/10/17 08:30:27;;;;;;;4.18;2.95;;;8.90;99.90;;;;;;5034237;28;20182;-82
2023/10/17 08:35:37;;;;;;;4.45;3.25;;;9.00;99.90;;;;;;5034937;28;20170;-81
2023/10/17 08:38:06;;;;;;;4.43;3.35;;;9.10;99.90;;;;;;5008089;28;20236;-81
2023/10/17 08:43:06;;;;;;;3.37;2.93;;;9.10;99.90;;;;;;5038173;28;20178;-81
2023/10/17 08:45:37;;;;;;;3.97;2.67;;;9.20;99.90;;;;;;5055890;28;20505;-81
2023/10/17 08:48:05;;;;;;;4.43;3.38;;;9.30;99.90;;;;;;5055366;28;20184;-81
2023/10/17 08:50:38;;;;;;;4.57;2.88;;;9.30;99.90;;;;;;5056388;28;20180;-81
2023/10/17 08:53:19;;;;;;;4.63;2.83;;;9.30;99.90;;;;;;5037705;28;20185;-81
2023/10/17 08:55:48;;;;;;;3.80;2.40;;;9.30;99.90;;;;;;5034544;28;20206;-81
2023/10/17 08:58:15;;;;;;;5.80;2.63;;;9.40;99.90;;;;;;5038927;28;20335;-81
2023/10/17 09:03:23;;;;;;;3.72;2.72;;;9.40;99.90;;;;;;5042835;28;20606;-81
2023/10/17 09:08:51;;;;;;;4.22;2.67;;;9.70;99.90;;;;;;5044609;28;20276;-81
2023/10/17 09:11:29;;;;;;;5.72;2.47;;;9.70;99.90;;;;;;5059498;28;20161;-81
2023/10/17 09:16:43;;;;;;;4.00;2.30;;;9.90;99.90;;;;;;5059067;28;20176;-82
2023/10/17 09:19:10;;;;;;;8.88;3.20;;;10.10;99.90;;;;;;5059233;28;20649;-81
2023/10/17 09:21:41;;;;;;;5.85;3.60;;;10.20;99.90;;;;;;5059429;28;20174;-81
2023/10/17 09:24:29;;;;;;;4.53;3.22;;;10.30;99.90;;;;;;5009812;28;20277;-81
2023/10/17 09:26:56;;;;;;;3.78;2.75;;;10.50;99.90;;;;;;5058463;28;20165;-81
2023/10/17 09:29:22;;;;;;;4.38;2.00;;;10.50;99.90;;;;;;5024990;28;20247;-81
2023/10/17 09:31:49;;;;;;;6.32;2.95;;;10.60;99.90;;;;;;5041003;28;20174;-81
2023/10/17 09:34:16;;;;;;;3.95;2.50;;;10.80;99.90;;;;;;5040772;28;20178;-81
2023/10/17 09:36:43;;;;;;;5.37;2.47;;;11.20;99.90;;;;;;5041145;28;20181;-80
2023/10/17 09:39:15;;;;;;;3.27;2.47;;;11.70;99.90;;;;;;5040068;28;20867;-81
2023/10/17 09:41:40;;;;;;;3.03;1.70;;;11.70;99.90;;;;;;5057529;28;20428;-80
2023/10/17 09:44:10;;;;;;;3.40;2.27;;;11.50;99.90;;;;;;5058541;28;20420;-81
2023/10/17 09:46:37;;;;;;;3.55;2.15;;;11.30;99.90;;;;;;5057779;28;20420;-81
2023/10/17 09:49:05;;;;;;;3.77;2.23;;;11.10;99.90;;;;;;5041159;28;20338;-81
2023/10/17 09:51:35;;;;;;;3.87;2.50;;;11.10;99.90;;;;;;5040653;28;20964;-81
2023/10/17 09:54:04;;;;;;;3.50;2.27;;;11.20;99.90;;;;;;5021084;28;20440;-81
2023/10/17 09:56:37;;;;;;;4.30;2.27;;;11.60;99.90;;;;;;5058813;28;20454;-81
2023/10/17 09:59:11;;;;;;;3.90;2.20;;;12.20;99.90;;;;;;5058140;28;20546;-81
2023/10/17 10:01:39;;;;;;;3.50;2.13;;;12.60;99.90;;;;;;5057918;28;20462;-81
2023/10/17 10:04:07;;;;;;;16.57;3.30;;;12.30;99.90;;;;;;5058864;28;20412;-81
2023/10/17 10:06:34;;;;;;;2.43;1.80;;;12.10;99.90;;;;;;5058703;28;20412;-82
2023/10/17 10:09:26;;;;;;;22.63;4.10;;;11.80;99.90;;;;;;5039809;28;20481;-82
2023/10/17 10:11:51;;;;;;;7.00;2.50;;;11.40;99.90;;;;;;5057579;28;20510;-82
2023/10/17 10:14:33;;;;;;;25.03;4.00;;;11.30;99.90;;;;;;5040161;28;20507;-82
2023/10/17 10:17:05;;;;;;;4.37;1.83;;;11.40;99.90;;;;;;5057475;28;20169;-82
2023/10/17 10:19:46;;;;;;;5.53;1.80;;;12.10;99.90;;;;;;5057878;28;20408;-82
2023/10/17 10:22:13;;;;;;;9.03;2.23;;;13.00;99.90;;;;;;5057420;28;20416;-82
2023/10/17 10:24:40;;;;;;;3.20;1.83;;;13.90;99.90;;;;;;5023614;28;20448;-82
2023/10/17 10:27:24;;;;;;;4.33;1.50;;;13.90;99.90;;;;;;5039610;28;20412;-82
2023/10/17 10:29:53;;;;;;;4.30;1.90;;;14.50;99.90;;;;;;5040027;28;20780;-83
2023/10/17 10:32:25;;;;;;;2.23;1.50;;;14.90;99.90;;;;;;5047358;28;20391;-82
2023/10/17 10:34:51;;;;;;;2.00;1.83;;;15.00;99.90;;;;;;5063897;28;20404;-82
2023/10/17 10:37:17;;;;;;;2.90;1.50;;;14.90;99.90;;;;;;5019528;28;20477;-82
2023/10/17 10:40:17;;;;;;;3.10;1.80;;;15.20;99.90;;;;;;5037552;28;20399;-79
2023/10/17 10:42:48;;;;;;;3.10;2.00;;;15.00;99.90;;;;;;5037225;28;20440;-78
2023/10/17 10:45:42;;;;;;;1.47;1.20;;;15.50;99.90;;;;;;5036992;28;20491;-81
2023/10/17 10:48:18;;;;;;;3.63;1.50;;;15.20;99.90;;;;;;5035730;28;20912;-80
2023/10/17 10:50:46;;;;;;;4.50;2.50;;;15.40;99.90;;;;;;5035351;28;20415;-81
2023/10/17 10:53:39;;;;;;;2.30;1.37;;;15.30;99.90;;;;;;5035533;28;20413;-80
2023/10/17 10:56:09;;;;;;;2.70;1.30;;;15.10;99.90;;;;;;5035164;28;20424;-80
2023/10/17 10:58:42;;;;;;;5.07;1.93;;;15.20;99.90;;;;;;5036398;28;20439;-81
2023/10/17 11:01:08;;;;;;;1.60;1.50;;;15.20;99.90;;;;;;5036451;28;20533;-80
2023/10/17 11:03:40;;;;;;;4.13;2.87;;;15.20;99.90;;;;;;5036841;28;20428;-80
2023/10/17 11:06:08;;;;;;;2.27;1.23;;;15.30;99.90;;;;;;5036352;28;20635;-80
2023/10/17 11:08:40;;;;;;;2.63;1.23;;;15.70;99.90;;;;;;5036454;28;20442;-81
2023/10/17 11:11:09;;;;;;;2.80;1.27;;;16.00;99.90;;;;;;5034488;28;20799;-80
2023/10/17 11:13:38;;;;;;;2.87;1.70;;;15.70;99.90;;;;;;5034810;28;20430;-81
2023/10/17 11:16:05;;;;;;;3.30;1.37;;;15.60;99.90;;;;;;5035995;28;20497;-78
2023/10/17 11:18:38;;;;;;;2.90;1.23;;;15.60;99.90;;;;;;5036006;28;20984;-82
2023/10/17 11:21:05;;;;;;;5.10;1.60;;;15.60;99.90;;;;;;5034088;28;20414;-81
2023/10/17 11:23:33;;;;;;;3.30;2.27;;;15.90;99.90;;;;;;5035633;28;20399;-82
2023/10/17 11:26:00;;;;;;;4.00;1.93;;;16.40;99.90;;;;;;5034126;28;20899;-82
2023/10/17 11:28:29;;;;;;;3.83;1.57;;;16.60;99.90;;;;;;5035454;28;20375;-82
2023/10/17 11:30:58;;;;;;;2.33;1.93;;;16.50;99.90;;;;;;5035354;28;20418;-81
2023/10/17 11:33:37;;;;;;;2.03;1.40;;;16.40;99.90;;;;;;5035211;28;20420;-82
2023/10/17 11:36:12;;;;;;;2.60;1.20;;;16.80;99.90;;;;;;5035288;28;20495;-81
2023/10/17 11:38:40;;;;;;;2.40;1.33;;;16.90;99.90;;;;;;5017102;28;20551;-82
2023/10/17 11:41:06;;;;;;;1.70;1.20;;;17.30;99.90;;;;;;5014041;28;20435;-81
2023/10/17 11:43:36;;;;;;;1.40;1.03;;;17.70;99.90;;;;;;5014436;28;20431;-81
2023/10/17 11:46:03;;;;;;;3.33;1.50;;;17.80;99.90;;;;;;5014945;28;20473;-82
2023/10/17 11:48:31;;;;;;;3.57;1.40;;;18.00;99.90;;;;;;5013701;28;20804;-81
2023/10/17 11:51:28;;;;;;;2.00;1.30;;;17.90;99.90;;;;;;4999413;28;20442;-81
2023/10/17 11:54:05;;;;;;;1.63;1.10;;;18.00;99.90;;;;;;4993476;28;20409;-82
2023/10/17 11:56:35;;;;;;;1.47;1.30;;;18.00;99.90;;;;;;4995531;28;20824;-81
2023/10/17 11:59:05;;;;;;;1.27;1.13;;;17.70;99.90;;;;;;4995521;28;20474;-82
2023/10/17 12:01:34;;;;;;;1.93;1.23;;;17.70;99.90;;;;;;4995389;28;20495;-81
2023/10/17 12:04:06;;;;;;;1.80;1.40;;;17.80;99.90;;;;;;4995544;28;20401;-82
2023/10/17 12:06:32;;;;;;;1.83;1.30;;;18.00;99.90;;;;;;4995524;28;20446;-81
2023/10/17 12:08:58;;;;;;;3.40;1.17;;;18.10;99.90;;;;;;4994521;28;20467;-80
2023/10/17 12:11:26;;;;;;;1.70;1.40;;;18.20;99.90;;;;;;4995100;28;20414;-81
2023/10/17 12:13:52;;;;;;;1.97;1.57;;;18.40;99.90;;;;;;4978127;28;20226;-81
2023/10/17 12:16:23;;;;;;;1.83;0.90;;;18.30;99.90;;;;;;4995368;28;20477;-81
2023/10/17 12:18:50;;;;;;;2.63;1.40;;;18.70;99.90;;;;;;4995124;28;20471;-81
2023/10/17 12:21:16;;;;;;;2.50;1.37;;;19.00;99.90;;;;;;5005831;28;20743;-82
2023/10/17 12:23:41;;;;;;;5.63;1.63;;;18.90;99.90;;;;;;5014124;28;20419;-82
2023/10/17 12:26:13;;;;;;;2.50;1.60;;;18.80;99.90;;;;;;5013121;28;20639;-81
2023/10/17 12:28:41;;;;;;;8.13;1.80;;;18.80;99.90;;;;;;5013218;28;20221;-82
2023/10/17 12:31:10;;;;;;;2.47;1.50;;;19.20;99.90;;;;;;4996216;28;20910;-81
2023/10/17 12:33:36;;;;;;;1.50;1.20;;;19.60;99.90;;;;;;5014840;28;20393;-81
2023/10/17 12:36:05;;;;;;;3.40;1.33;;;19.20;98.40;;;;;;5014416;28;20403;-81
2023/10/17 12:38:34;;;;;;;2.83;1.67;;;18.80;97.50;;;;;;5044344;28;20489;-81
2023/10/17 12:41:06;;;;;;;1.70;1.10;;;19.10;97.50;;;;;;5036616;28;20445;-81
2023/10/17 12:43:33;;;;;;;2.07;1.00;;;19.10;98.20;;;;;;5036407;28;20403;-81
2023/10/17 12:46:00;;;;;;;3.33;1.10;;;19.30;98.70;;;;;;5055095;28;20444;-81
2023/10/17 12:48:25;;;;;;;3.30;1.17;;;19.40;96.50;;;;;;5022127;28;20386;-81
2023/10/17 12:50:51;;;;;;;2.70;1.50;;;19.30;96.50;;;;;;5054368;28;20390;-81
2023/10/17 12:53:17;;;;;;;1.40;1.30;;;19.40;95.30;;;;;;5035776;28;20223;-82
2023/10/17 12:55:42;;;;;;;5.93;2.27;;;19.30;94.60;;;;;;5020041;28;20656;-82
2023/10/17 12:58:10;;;;;;;3.20;1.40;;;19.40;94.50;;;;;;5035999;28;20213;-81
2023/10/17 13:00:40;;;;;;;3.67;1.47;;;19.90;94.90;;;;;;5036882;28;20512;-80
2023/10/17 13:03:06;;;;;;;1.50;1.20;;;20.00;95.40;;;;;;5036612;28;20386;-81
2023/10/17 13:05:32;;;;;;;3.20;1.50;;;20.30;92.00;;;;;;5054205;28;20521;-80
2023/10/17 13:07:58;;;;;;;2.40;1.30;;;20.00;91.40;;;;;;5054205;28;20463;-81
2023/10/17 13:10:26;;;;;;;2.73;1.60;;;20.20;93.10;;;;;;5053820;28;20408;-82
2023/10/17 13:12:52;;;;;;;5.87;1.33;;;19.30;90.80;;;;;;5053730;28;20519;-81
2023/10/17 13:15:17;;;;;;;1.60;1.50;;;19.90;92.80;;;;;;5035168;28;20416;-82
2023/10/17 13:17:44;;;;;;;2.50;1.30;;;19.70;90.20;;;;;;5054142;28;20206;-82
2023/10/17 13:20:10;;;;;;;5.33;1.57;;;19.80;91.10;;;;;;5053215;28;20215;-82
2023/10/17 13:22:46;;;;;;;2.77;1.67;;;19.40;89.80;;;;;;5035309;28;20436;-82
2023/10/17 13:25:18;;;;;;;1.93;1.13;;;19.70;90.50;;;;;;5036140;28;20390;-82
2023/10/17 13:27:44;;;;;;;2.80;2.00;;;20.10;91.30;;;;;;5053549;28;20399;-82
2023/10/17 13:30:09;;;;;;;1.70;1.30;;;20.20;90.80;;;;;;5053279;28;20898;-81
2023/10/17 13:32:35;;;;;;;1.83;1.47;;;20.20;88.90;;;;;;5053816;28;20394;-82
2023/10/17 13:35:01;;;;;;;4.60;1.40;;;20.30;88.80;;;;;;5019040;28;20184;-82
2023/10/17 13:37:27;;;;;;;1.77;1.50;;;20.10;87.80;;;;;;5018613;28;20677;-81
2023/10/17 13:39:53;;;;;;;3.30;2.10;;;20.20;87.90;;;;;;5035908;28;20205;-82
2023/10/17 13:42:19;;;;;;;2.80;1.50;;;20.10;87.50;;;;;;5019288;28;20420;-82
2023/10/17 13:44:44;;;;;;;1.50;1.07;;;20.10;88.20;;;;;;5039290;28;20399;-81
2023/10/17 13:47:10;;;;;;;1.37;1.27;;;20.40;87.80;;;;;;5039214;28;20224;-82
2023/10/17 13:49:35;;;;;;;1.90;1.40;;;20.20;82.60;;;;;;5039445;28;20546;-81
2023/10/17 13:52:03;;;;;;;4.83;2.00;;;20.30;87.10;;;;;;5039324;28;20173;-82
2023/10/17 13:54:34;;;;;;;1.03;0.93;;;20.80;86.60;;;;;;5037975;28;20380;-81
2023/10/17 13:57:00;;;;;;;1.40;1.23;;;20.80;86.50;;;;;;5036890;28;20479;-81
2023/10/17 13:59:38;;;;;;;3.47;1.30;;;20.90;86.10;;;;;;5018927;28;20809;-82
2023/10/17 14:02:08;;;;;;;5.90;1.30;;;20.20;80.50;;;;;;5004259;28;20461;-82
2023/10/17 14:04:36;;;;;;;3.30;1.47;;;20.20;80.90;;;;;;5036184;28;20459;-82
2023/10/17 14:07:03;;;;;;;2.30;1.07;;;20.10;81.70;;;;;;5036514;28;20417;-81
2023/10/17 14:09:29;;;;;;;1.53;1.13;;;19.70;82.70;;;;;;5037046;28;20395;-81
2023/10/17 14:11:56;;;;;;;1.40;1.07;;;19.60;83.30;;;;;;5019231;28;20395;-81
2023/10/17 14:14:24;;;;;;;1.83;1.20;;;19.80;83.70;;;;;;5036276;28;20450;-81
2023/10/17 14:16:50;;;;;;;2.87;1.40;;;19.70;79.40;;;;;;5018439;28;20769;-81
2023/10/17 14:19:18;;;;;;;1.70;1.23;;;19.90;82.00;;;;;;5002538;28;20446;-81
2023/10/17 14:21:47;;;;;;;2.70;1.07;;;19.70;83.30;;;;;;5018583;28;20487;-82
2023/10/17 14:24:27;;;;;;;2.10;1.07;;;19.70;80.60;;;;;;5018327;28;20433;-81
2023/10/17 14:26:53;;;;;;;1.90;1.20;;;19.70;82.50;;;;;;5018452;28;20428;-82
2023/10/17 14:29:21;;;;;;;1.97;1.60;;;19.20;78.40;;;;;;5035998;28;20413;-82
2023/10/17 14:31:47;;;;;;;1.73;1.13;;;19.10;80.80;;;;;;5035189;28;20417;-81
2023/10/17 14:34:12;;;;;;;1.10;0.90;;;19.60;82.70;;;;;;5036041;28;20535;-81
2023/10/17 14:36:38;;;;;;;2.37;1.40;;;20.00;79.10;;;;;;5018610;28;20940;-81
2023/10/17 14:39:09;;;;;;;2.37;1.23;;;20.20;77.60;;;;;;5038354;28;20285;-82
2023/10/17 14:41:36;;;;;;;4.50;1.30;;;20.10;75.30;;;;;;5037339;28;20630;-82
2023/10/17 14:44:03;;;;;;;1.30;1.00;;;20.00;77.00;;;;;;5055718;28;20402;-82
2023/10/17 14:46:30;;;;;;;3.77;1.03;;;19.80;77.20;;;;;;5034944;28;20432;-81
2023/10/17 14:48:56;;;;;;;1.90;0.90;;;20.20;77.80;;;;;;5036450;28;20428;-81
2023/10/17 14:51:22;;;;;;;1.60;1.10;;;20.10;77.50;;;;;;5035613;28;20379;-81
2023/10/17 14:53:48;;;;;;;1.57;1.30;;;19.90;78.40;;;;;;5035541;28;20455;-81
2023/10/17 14:56:14;;;;;;;1.00;0.90;;;20.40;76.70;;;;;;5035069;28;20174;-81
2023/10/17 14:58:49;;;;;;;1.93;1.00;;;20.20;76.80;;;;;;5018081;28;20206;-81
2023/10/17 15:01:16;;;;;;;1.40;1.17;;;20.00;78.00;;;;;;5035841;28;20209;-82
2023/10/17 15:03:42;;;;;;;2.93;1.43;;;19.90;76.90;;;;;;5019062;28;20925;-82
2023/10/17 15:06:09;;;;;;;1.57;1.10;;;19.80;77.40;;;;;;5008633;28;20436;-80
2023/10/17 15:08:35;;;;;;;2.60;1.80;;;19.50;77.90;;;;;;5025941;28;20467;-82
2023/10/17 15:11:10;;;;;;;4.87;1.27;;;19.50;75.10;;;;;;5055555;28;20441;-81
2023/10/17 15:13:37;;;;;;;2.23;1.33;;;19.50;75.10;;;;;;5055555;28;20763;-81
2023/10/17 15:16:12;;;;;;;3.03;1.40;;;19.20;75.10;;;;;;5055470;28;20383;-81
2023/10/17 15:18:38;;;;;;;2.23;0.97;;;19.20;76.70;;;;;;5055437;28;20472;-82
2023/10/17 15:21:15;;;;;;;1.77;1.07;;;19.10;77.10;;;;;;5037846;28;20951;-81
2023/10/17 15:23:41;;;;;;;1.60;1.07;;;19.10;76.50;;;;;;5055302;28;20177;-81
2023/10/17 15:26:07;;;;;;;2.00;0.97;;;19.10;78.90;;;;;;5020811;28;20416;-81
2023/10/17 15:28:33;;;;;;;3.53;1.17;;;19.00;80.00;;;;;;5037081;28;20967;-82
2023/10/17 15:31:09;;;;;;;2.73;1.20;;;18.70;78.80;;;;;;5020640;28;20446;-81
2023/10/17 15:33:39;;;;;;;1.60;1.20;;;18.90;81.20;;;;;;5054844;28;20819;-81
2023/10/17 15:36:05;;;;;;;2.97;1.23;;;19.00;77.90;;;;;;5055050;28;20383;-81